createdAt,value
2022-09-30T00:00:20.521Z,8.80
2022-09-30T00:02:50.928Z,8.80
2022-09-30T00:05:22.744Z,8.80
2022-09-30T00:07:54.216Z,8.80
2022-09-30T00:10:23.192Z,8.90
2022-09-30T00:12:53.839Z,8.90
2022-09-30T00:15:22.694Z,8.90
2022-09-30T00:17:52.872Z,8.90
2022-09-30T00:20:23.302Z,8.90
2022-09-30T00:22:52.496Z,8.90
2022-09-30T00:25:23.917Z,8.80
2022-09-30T00:27:52.897Z,8.80
2022-09-30T00:30:24.682Z,8.70
2022-09-30T00:32:56.750Z,8.70
2022-09-30T00:35:25.632Z,8.60
2022-09-30T00:37:56.002Z,8.60
2022-09-30T00:40:24.824Z,8.50
2022-09-30T00:42:55.965Z,8.50
2022-09-30T00:45:28.057Z,8.40
2022-09-30T00:48:05.736Z,8.40
2022-09-30T00:50:38.518Z,8.30
2022-09-30T00:53:16.146Z,8.30
2022-09-30T00:55:53.570Z,8.30
2022-09-30T00:58:26.668Z,8.30
2022-09-30T01:01:00.202Z,8.20
2022-09-30T01:03:39.216Z,8.20
2022-09-30T01:06:13.715Z,8.20
2022-09-30T01:08:48.076Z,8.20
2022-09-30T01:11:22.269Z,8.20
2022-09-30T01:13:57.310Z,8.20
2022-09-30T01:16:50.078Z,8.20
2022-09-30T01:19:40.558Z,8.20
2022-09-30T01:22:23.076Z,8.20
2022-09-30T01:25:28.951Z,8.20
2022-09-30T01:28:25.874Z,8.20
2022-09-30T01:31:22.506Z,8.20
2022-09-30T01:33:59.338Z,8.20
2022-09-30T01:36:40.963Z,8.20
2022-09-30T01:39:22.545Z,8.20
2022-09-30T01:41:58.369Z,8.20
2022-09-30T01:44:36.719Z,8.20
2022-09-30T01:47:13.853Z,8.20
2022-09-30T01:49:47.950Z,8.10
2022-09-30T01:52:22.305Z,8.10
2022-09-30T01:55:00.131Z,8.10
2022-09-30T01:57:40.430Z,8.10
2022-09-30T02:00:12.283Z,8.10
2022-09-30T02:02:48.787Z,8.10
2022-09-30T02:05:21.905Z,8.10
2022-09-30T02:07:57.677Z,8.00
2022-09-30T02:10:30.188Z,8.00
2022-09-30T02:13:05.683Z,8.00
2022-09-30T02:15:40.662Z,8.00
2022-09-30T02:18:16.289Z,8.00
2022-09-30T02:20:46.361Z,8.00
2022-09-30T02:23:22.476Z,7.90
2022-09-30T02:25:57.388Z,8.00
2022-09-30T02:28:28.675Z,8.00
2022-09-30T02:31:01.004Z,8.00
2022-09-30T02:33:36.616Z,8.00
2022-09-30T02:36:09.741Z,8.00
2022-09-30T02:38:43.199Z,8.00
2022-09-30T02:41:16.434Z,7.90
2022-09-30T02:43:45.422Z,7.90
2022-09-30T02:46:23.104Z,7.80
2022-09-30T02:49:03.954Z,7.90
2022-09-30T02:51:41.756Z,7.80
2022-09-30T02:54:19.429Z,7.80
2022-09-30T02:56:55.590Z,7.80
2022-09-30T02:59:28.009Z,7.80
2022-09-30T03:01:56.983Z,7.70
2022-09-30T03:04:34.403Z,7.70
2022-09-30T03:07:03.642Z,7.60
2022-09-30T03:09:32.653Z,7.60
2022-09-30T03:12:16.371Z,7.50
2022-09-30T03:15:15.251Z,7.50
2022-09-30T03:18:00.655Z,7.50
2022-09-30T03:20:56.636Z,7.40
2022-09-30T03:23:53.622Z,7.30
2022-09-30T03:26:34.452Z,7.30
2022-09-30T03:29:19.381Z,7.30
2022-09-30T03:32:04.135Z,7.20
2022-09-30T03:34:49.543Z,7.10
2022-09-30T03:37:27.537Z,7.10
2022-09-30T03:40:01.439Z,7.10
2022-09-30T03:42:36.508Z,7.10
2022-09-30T03:45:11.012Z,7.10
2022-09-30T03:47:46.063Z,7.00
2022-09-30T03:50:22.279Z,7.00
2022-09-30T03:52:53.919Z,7.00
2022-09-30T03:55:28.297Z,6.90
2022-09-30T03:57:57.999Z,6.90
2022-09-30T04:00:26.622Z,6.90
2022-09-30T04:02:57.885Z,6.90
2022-09-30T04:05:29.023Z,6.80
2022-09-30T04:07:59.243Z,6.80
2022-09-30T04:10:28.242Z,6.80
2022-09-30T04:12:57.868Z,6.80
2022-09-30T04:15:29.266Z,6.80
2022-09-30T04:18:00.727Z,6.80
2022-09-30T04:20:30.593Z,6.80
2022-09-30T04:23:04.302Z,6.70
2022-09-30T04:25:33.082Z,6.70
2022-09-30T04:28:02.123Z,6.60
2022-09-30T04:30:35.826Z,6.60
2022-09-30T04:33:07.112Z,6.60
2022-09-30T04:35:41.546Z,6.50
2022-09-30T04:38:11.798Z,6.50
2022-09-30T04:40:41.455Z,6.50
2022-09-30T04:43:11.613Z,6.50
2022-09-30T04:45:48.071Z,6.60
2022-09-30T04:48:17.474Z,6.60
2022-09-30T04:50:46.647Z,6.60
2022-09-30T04:53:19.984Z,6.60
2022-09-30T04:55:51.307Z,6.60
2022-09-30T04:58:24.700Z,6.60
2022-09-30T05:00:56.203Z,6.60
2022-09-30T05:03:25.057Z,6.60
2022-09-30T05:05:56.376Z,6.60
2022-09-30T05:08:35.438Z,6.70
2022-09-30T05:11:06.198Z,6.70
2022-09-30T05:13:37.081Z,6.70
2022-09-30T05:16:10.838Z,6.70
2022-09-30T05:18:42.412Z,6.80
2022-09-30T05:21:12.238Z,6.70
2022-09-30T05:23:49.486Z,6.70
2022-09-30T05:26:25.647Z,6.70
2022-09-30T05:28:54.662Z,6.70
2022-09-30T05:31:23.899Z,6.70
2022-09-30T05:33:57.893Z,6.70
2022-09-30T05:36:29.577Z,6.70
2022-09-30T05:38:59.881Z,6.70
2022-09-30T05:41:28.832Z,6.80
2022-09-30T05:44:04.083Z,6.80
2022-09-30T05:46:35.272Z,6.80
2022-09-30T05:49:06.736Z,6.80
2022-09-30T05:51:36.564Z,6.80
2022-09-30T05:54:06.706Z,6.80
2022-09-30T05:56:38.729Z,6.80
2022-09-30T05:59:12.660Z,6.90
2022-09-30T06:01:46.003Z,7.00
2022-09-30T06:04:16.653Z,7.00
2022-09-30T06:06:48.827Z,7.10
2022-09-30T06:09:19.239Z,7.10
2022-09-30T06:11:53.304Z,7.20
2022-09-30T06:14:26.449Z,7.20
2022-09-30T06:16:55.426Z,7.20
2022-09-30T06:19:28.238Z,7.30
2022-09-30T06:21:59.083Z,7.30
2022-09-30T06:24:31.513Z,7.40
2022-09-30T06:27:00.503Z,7.40
2022-09-30T06:29:35.141Z,7.40
2022-09-30T06:32:08.246Z,7.50
2022-09-30T06:34:39.289Z,7.50
2022-09-30T06:37:11.760Z,7.50
2022-09-30T06:39:46.563Z,7.50
2022-09-30T06:42:18.625Z,7.50
2022-09-30T06:44:53.188Z,7.60
2022-09-30T06:47:25.802Z,7.60
2022-09-30T06:49:58.959Z,7.70
2022-09-30T06:52:34.635Z,7.70
2022-09-30T06:55:05.102Z,7.80
2022-09-30T06:57:36.203Z,7.80
2022-09-30T07:00:07.521Z,7.80
2022-09-30T07:02:37.385Z,7.90
2022-09-30T07:05:09.248Z,7.90
2022-09-30T07:07:38.616Z,7.90
2022-09-30T07:10:15.426Z,8.00
2022-09-30T07:12:51.138Z,8.00
2022-09-30T07:15:21.974Z,8.10
2022-09-30T07:17:54.756Z,8.10
2022-09-30T07:20:26.713Z,8.10
2022-09-30T07:22:58.832Z,8.20
2022-09-30T07:25:34.036Z,8.10
2022-09-30T07:28:08.914Z,8.20
2022-09-30T07:30:43.823Z,8.20
2022-09-30T07:33:29.334Z,8.30
2022-09-30T07:36:04.092Z,8.30
2022-09-30T07:38:33.967Z,8.40
2022-09-30T07:41:09.349Z,8.40
2022-09-30T07:43:45.409Z,8.40
2022-09-30T07:46:33.862Z,8.50
2022-09-30T07:49:07.910Z,8.60
2022-09-30T07:51:46.591Z,8.60
2022-09-30T07:54:27.971Z,8.60
2022-09-30T07:57:16.445Z,8.70
2022-09-30T07:59:48.475Z,8.70
2022-09-30T08:02:20.484Z,8.80
2022-09-30T08:04:51.786Z,8.80
2022-09-30T08:07:24.629Z,8.90
2022-09-30T08:09:54.855Z,9.00
2022-09-30T08:12:47.388Z,9.00
2022-09-30T08:15:16.428Z,9.00
2022-09-30T08:17:46.476Z,9.10
2022-09-30T08:20:22.087Z,9.20
2022-09-30T08:23:05.513Z,9.20
2022-09-30T08:25:34.591Z,9.20
2022-09-30T08:28:05.247Z,9.30
2022-09-30T08:35:41.280Z,10.30
2022-09-30T08:38:10.000Z,9.60
2022-09-30T08:40:53.014Z,9.60
2022-09-30T08:43:31.117Z,9.70
2022-09-30T08:46:08.821Z,9.80
2022-09-30T08:51:27.828Z,9.90
2022-09-30T08:53:59.209Z,10.00
2022-09-30T08:56:32.018Z,10.00
2022-09-30T08:59:08.454Z,10.10
2022-09-30T09:01:40.075Z,10.10
2022-09-30T09:04:10.012Z,10.20
2022-09-30T09:06:50.573Z,10.30
2022-09-30T09:12:09.836Z,10.40
2022-09-30T09:14:53.280Z,10.40
2022-09-30T09:17:32.286Z,10.50
2022-09-30T09:20:09.827Z,10.60
2022-09-30T09:46:05.644Z,11.50
2022-09-30T10:57:04.715Z,12.00
2022-09-30T10:59:38.988Z,12.00
2022-09-30T11:05:06.800Z,12.20
2022-09-30T11:07:41.857Z,12.30
2022-09-30T11:10:34.853Z,12.30
2022-09-30T11:13:10.062Z,12.50
2022-09-30T11:15:45.377Z,12.60
2022-09-30T11:18:22.712Z,12.50
2022-09-30T11:20:58.761Z,12.60
2022-09-30T11:23:32.462Z,12.70
2022-09-30T11:26:08.314Z,12.80
2022-09-30T11:28:56.183Z,12.80
2022-09-30T11:31:32.681Z,12.90
2022-09-30T11:34:38.204Z,13.00
2022-09-30T12:48:17.620Z,13.80
2022-09-30T12:50:49.542Z,13.90
2022-09-30T12:53:21.989Z,13.90
2022-09-30T12:55:52.991Z,13.80
2022-09-30T12:58:29.966Z,13.80
2022-09-30T13:01:12.810Z,13.80
2022-09-30T13:03:52.285Z,13.70
2022-09-30T13:06:21.774Z,13.70
2022-09-30T13:09:07.084Z,13.60
2022-09-30T13:11:42.689Z,13.60
2022-09-30T13:14:26.172Z,13.60
2022-09-30T13:17:24.458Z,13.60
2022-09-30T13:19:56.114Z,13.50
2022-09-30T13:22:59.115Z,13.50
2022-09-30T13:25:28.111Z,13.50
2022-09-30T13:28:38.767Z,13.50
2022-09-30T13:31:15.904Z,13.40
2022-09-30T13:33:48.052Z,13.50
2022-09-30T13:36:20.639Z,13.50
2022-09-30T13:39:19.440Z,13.60
2022-09-30T13:41:56.824Z,13.60
2022-09-30T13:44:34.001Z,13.80
2022-09-30T13:47:09.805Z,13.80
2022-09-30T13:49:47.113Z,13.90
2022-09-30T13:52:23.004Z,13.90
2022-09-30T13:54:54.985Z,13.90
2022-09-30T13:57:29.958Z,13.90
2022-09-30T14:00:08.905Z,13.80
2022-09-30T14:03:19.329Z,13.60
2022-09-30T14:06:16.509Z,13.50
2022-09-30T14:09:02.729Z,13.40
2022-09-30T14:12:00.601Z,13.40
2022-09-30T14:17:48.349Z,13.10
2022-09-30T14:20:36.265Z,13.00
2022-09-30T14:23:05.391Z,12.90
2022-09-30T14:25:43.411Z,13.00
2022-09-30T14:28:17.052Z,12.90
2022-09-30T16:44:11.616Z,9.90
2022-09-30T16:49:15.687Z,9.80
2022-09-30T16:51:46.175Z,9.60
2022-09-30T16:54:15.151Z,9.60
2022-09-30T16:56:44.859Z,9.50
2022-09-30T16:59:15.301Z,9.40
2022-09-30T17:01:44.344Z,9.40
2022-09-30T17:04:15.396Z,9.30
2022-09-30T17:06:47.523Z,9.20
2022-09-30T17:09:16.658Z,9.20
2022-09-30T17:11:46.363Z,9.10
2022-09-30T17:14:15.823Z,9.00
2022-09-30T17:16:46.780Z,9.00
2022-09-30T17:19:16.386Z,9.00
2022-09-30T17:21:46.607Z,9.00
2022-09-30T17:24:15.478Z,9.00
2022-09-30T17:26:44.642Z,9.10
2022-09-30T17:29:32.454Z,9.10
2022-09-30T17:32:02.070Z,9.00
2022-09-30T17:34:30.818Z,8.90
2022-09-30T17:37:01.242Z,8.90
2022-09-30T17:39:30.031Z,8.80
2022-09-30T17:42:16.071Z,8.80
2022-09-30T17:44:44.903Z,8.70
2022-09-30T17:47:13.656Z,8.70
2022-09-30T17:49:42.413Z,8.70
2022-09-30T17:52:15.086Z,8.60
2022-09-30T17:54:44.651Z,8.60
2022-09-30T17:57:14.603Z,8.60
2022-09-30T17:59:46.661Z,8.60
2022-09-30T18:02:17.839Z,8.60
2022-09-30T18:04:47.634Z,8.50
2022-09-30T18:07:18.340Z,8.50
2022-09-30T18:09:47.108Z,8.50
2022-09-30T18:12:16.094Z,8.50
2022-09-30T18:14:44.839Z,8.50
2022-09-30T18:17:13.855Z,8.60
2022-09-30T18:19:42.694Z,8.50
2022-09-30T18:22:11.493Z,8.50
2022-09-30T18:24:59.302Z,8.50
2022-09-30T18:27:29.396Z,8.50
2022-09-30T18:29:58.185Z,8.50
2022-09-30T18:32:26.967Z,8.40
2022-09-30T18:34:56.481Z,8.50
2022-09-30T18:37:25.444Z,8.40
2022-09-30T18:39:55.637Z,8.40
2022-09-30T18:42:24.399Z,8.40
2022-09-30T18:44:55.171Z,8.40
2022-09-30T18:47:24.006Z,8.40
2022-09-30T18:49:52.760Z,8.40
2022-09-30T18:52:21.585Z,8.40
2022-09-30T18:54:50.317Z,8.40
2022-09-30T18:57:20.515Z,8.40
2022-09-30T18:59:49.251Z,8.30
2022-09-30T19:02:18.263Z,8.30
2022-09-30T19:04:47.550Z,8.30
2022-09-30T19:07:19.696Z,8.30
2022-09-30T19:09:48.590Z,8.30
2022-09-30T19:12:17.791Z,8.20
2022-09-30T19:14:48.635Z,8.20
2022-09-30T19:17:17.867Z,8.20
2022-09-30T19:19:46.544Z,8.20
2022-09-30T19:22:15.402Z,8.10
2022-09-30T19:24:46.626Z,8.10
2022-09-30T19:27:15.479Z,8.10
2022-09-30T19:29:44.358Z,8.10
2022-09-30T19:32:15.597Z,8.10
2022-09-30T19:34:49.112Z,8.00
2022-09-30T19:37:27.666Z,8.00
2022-09-30T19:40:01.156Z,8.00
2022-09-30T19:42:34.246Z,7.90
2022-09-30T19:45:03.125Z,7.90
2022-09-30T19:47:34.503Z,7.90
2022-09-30T19:50:03.515Z,7.90
2022-09-30T19:52:32.477Z,7.80
2022-09-30T19:55:12.968Z,7.80
2022-09-30T19:57:43.951Z,7.80
2022-09-30T20:00:13.435Z,7.80
2022-09-30T20:02:43.616Z,7.80
2022-09-30T20:05:12.676Z,7.90
2022-09-30T20:07:41.378Z,7.90
2022-09-30T20:10:10.789Z,7.90
2022-09-30T20:12:39.469Z,7.90
2022-09-30T20:15:28.187Z,7.60
2022-09-30T20:17:58.354Z,7.80
2022-09-30T20:20:37.232Z,7.80
2022-09-30T20:23:06.351Z,7.80
2022-09-30T20:25:36.970Z,7.80
2022-09-30T20:28:09.173Z,7.80
2022-09-30T20:30:45.715Z,7.80
2022-09-30T20:33:17.879Z,7.80
2022-09-30T20:35:46.897Z,7.80
2022-09-30T20:38:17.743Z,7.80
2022-09-30T20:40:55.717Z,7.80
2022-09-30T20:43:26.933Z,7.80
2022-09-30T20:45:57.604Z,7.80
2022-09-30T20:48:31.237Z,7.80
2022-09-30T20:51:02.592Z,7.90
2022-09-30T20:53:31.583Z,7.90
2022-09-30T20:56:05.073Z,7.90
2022-09-30T20:58:34.791Z,7.90
2022-09-30T21:01:03.829Z,7.90
2022-09-30T21:03:36.259Z,7.90
2022-09-30T21:06:05.608Z,7.90
2022-09-30T21:08:40.689Z,8.00
2022-09-30T21:11:10.220Z,8.00
2022-09-30T21:13:43.193Z,8.00
2022-09-30T21:16:15.380Z,8.00
2022-09-30T21:18:46.382Z,8.00
2022-09-30T21:21:17.501Z,8.00
2022-09-30T21:23:46.990Z,8.00
2022-09-30T21:26:17.186Z,8.00
2022-09-30T21:28:49.183Z,8.00
2022-09-30T21:31:21.435Z,8.00
2022-09-30T21:33:59.567Z,8.00
2022-09-30T21:36:29.857Z,8.00
2022-09-30T21:39:02.865Z,8.00
2022-09-30T21:41:32.841Z,8.00
2022-09-30T21:44:04.406Z,8.00
2022-09-30T21:46:34.980Z,8.00
2022-09-30T21:49:16.440Z,8.00
2022-09-30T21:51:48.234Z,8.00
2022-09-30T21:54:16.757Z,8.00
2022-09-30T21:56:48.220Z,8.00
2022-09-30T21:59:20.516Z,8.00
2022-09-30T22:01:49.448Z,8.00
2022-09-30T22:04:22.509Z,8.00
2022-09-30T22:06:52.910Z,8.00
2022-09-30T22:09:21.802Z,8.00
2022-09-30T22:11:51.221Z,8.00
2022-09-30T22:14:21.951Z,8.00
2022-09-30T22:16:50.872Z,8.00
2022-09-30T22:19:21.331Z,8.00
2022-09-30T22:21:50.290Z,8.00
2022-09-30T22:24:19.038Z,8.00
2022-09-30T22:26:49.228Z,8.00
2022-09-30T22:29:18.143Z,8.00
2022-09-30T22:31:46.906Z,8.00
2022-09-30T22:34:35.593Z,8.00
2022-09-30T22:37:26.825Z,8.00
2022-09-30T22:40:00.756Z,8.00
2022-09-30T22:42:31.266Z,8.00
2022-09-30T22:45:01.101Z,8.00
2022-09-30T22:47:31.645Z,8.00
2022-09-30T22:50:00.487Z,7.90
2022-09-30T22:52:32.236Z,7.90
2022-09-30T22:55:01.090Z,7.90
2022-09-30T22:57:31.382Z,7.90
2022-09-30T23:00:00.401Z,7.90
2022-09-30T23:02:29.171Z,7.90
2022-09-30T23:04:59.239Z,8.00
2022-09-30T23:07:28.444Z,8.00
2022-09-30T23:09:58.841Z,8.00
2022-09-30T23:12:29.405Z,8.10
2022-09-30T23:14:58.115Z,8.10
2022-09-30T23:17:27.076Z,8.10
2022-09-30T23:19:55.984Z,8.10
2022-09-30T23:22:25.361Z,8.10
2022-09-30T23:24:54.083Z,8.10
2022-09-30T23:27:26.263Z,8.10
2022-09-30T23:29:59.173Z,8.10
2022-09-30T23:32:28.250Z,8.10
2022-09-30T23:35:00.221Z,8.10
2022-09-30T23:37:29.936Z,8.10
2022-09-30T23:40:01.066Z,8.10
2022-09-30T23:42:32.470Z,8.20
2022-09-30T23:45:02.304Z,8.20
2022-09-30T23:47:33.720Z,8.20
2022-09-30T23:50:03.322Z,8.20
2022-09-30T23:52:31.774Z,8.20
2022-09-30T23:55:09.258Z,8.20
2022-09-30T23:57:41.984Z,8.20
